sensor_id;sensor_type;location;lat;lon;timestamp;P1;durP1;ratioP1;P2;durP2;ratioP2
1569;SDS011;778;50.120;8.698;2024-01-15T00:01:42;22.70;;;13.93;;
1569;SDS011;778;50.120;8.698;2024-01-15T00:04:11;30.87;;;15.37;;
1569;SDS011;778;50.120;8.698;2024-01-15T00:06:40;28.77;;;15.13;;
1569;SDS011;778;50.120;8.698;2024-01-15T00:09:08;26.40;;;13.97;;
1569;SDS011;778;50.120;8.698;2024-01-15T00:11:37;27.93;;;12.97;;
1569;SDS011;778;50.120;8.698;2024-01-15T00:14:08;24.07;;;13.50;;
1569;SDS011;778;50.120;8.698;2024-01-15T00:16:36;22.37;;;12.70;;
1569;SDS011;778;50.120;8.698;2024-01-15T00:19:05;25.87;;;14.53;;
1569;SDS011;778;50.120;8.698;2024-01-15T00:21:34;24.10;;;12.10;;
1569;SDS011;778;50.120;8.698;2024-01-15T00:24:02;23.00;;;13.20;;
1569;SDS011;778;50.120;8.698;2024-01-15T00:26:31;17.40;;;10.70;;
1569;SDS011;778;50.120;8.698;2024-01-15T00:28:59;21.00;;;12.00;;
1569;SDS011;778;50.120;8.698;2024-01-15T00:31:30;32.27;;;15.67;;
1569;SDS011;778;50.120;8.698;2024-01-15T00:33:58;22.13;;;10.67;;
1569;SDS011;778;50.120;8.698;2024-01-15T00:36:27;24.63;;;13.20;;
1569;SDS011;778;50.120;8.698;2024-01-15T00:38:56;23.10;;;12.13;;
1569;SDS011;778;50.120;8.698;2024-01-15T00:41:24;23.60;;;12.73;;
1569;SDS011;778;50.120;8.698;2024-01-15T00:43:54;24.63;;;12.93;;
1569;SDS011;778;50.120;8.698;2024-01-15T00:46:22;21.97;;;11.13;;
1569;SDS011;778;50.120;8.698;2024-01-15T00:48:52;21.27;;;12.43;;
1569;SDS011;778;50.120;8.698;2024-01-15T00:51:21;17.67;;;9.50;;
1569;SDS011;778;50.120;8.698;2024-01-15T00:53:49;23.93;;;12.33;;
1569;SDS011;778;50.120;8.698;2024-01-15T00:56:18;24.50;;;12.97;;
1569;SDS011;778;50.120;8.698;2024-01-15T00:58:46;23.07;;;12.37;;
1569;SDS011;778;50.120;8.698;2024-01-15T01:01:14;20.27;;;8.80;;
1569;SDS011;778;50.120;8.698;2024-01-15T01:03:43;23.80;;;12.57;;
1569;SDS011;778;50.120;8.698;2024-01-15T01:06:13;20.50;;;10.17;;
1569;SDS011;778;50.120;8.698;2024-01-15T01:08:41;20.63;;;11.30;;
1569;SDS011;778;50.120;8.698;2024-01-15T01:11:12;25.40;;;13.17;;
1569;SDS011;778;50.120;8.698;2024-01-15T01:13:41;24.03;;;13.07;;
1569;SDS011;778;50.120;8.698;2024-01-15T01:16:09;33.90;;;13.87;;
1569;SDS011;778;50.120;8.698;2024-01-15T01:18:38;21.53;;;12.63;;
1569;SDS011;778;50.120;8.698;2024-01-15T01:21:06;28.93;;;13.40;;
1569;SDS011;778;50.120;8.698;2024-01-15T01:23:36;24.60;;;12.77;;
1569;SDS011;778;50.120;8.698;2024-01-15T01:26:05;22.17;;;11.57;;
1569;SDS011;778;50.120;8.698;2024-01-15T01:28:33;24.47;;;13.80;;
1569;SDS011;778;50.120;8.698;2024-01-15T01:31:01;18.03;;;10.60;;
1569;SDS011;778;50.120;8.698;2024-01-15T01:33:30;29.10;;;13.90;;
1569;SDS011;778;50.120;8.698;2024-01-15T01:35:59;24.40;;;14.50;;
1569;SDS011;778;50.120;8.698;2024-01-15T01:38:27;26.80;;;15.17;;
1569;SDS011;778;50.120;8.698;2024-01-15T01:40:57;30.87;;;15.10;;
1569;SDS011;778;50.120;8.698;2024-01-15T01:43:25;30.40;;;15.30;;
1569;SDS011;778;50.120;8.698;2024-01-15T01:45:54;21.23;;;11.03;;
1569;SDS011;778;50.120;8.698;2024-01-15T01:48:24;26.30;;;13.93;;
1569;SDS011;778;50.120;8.698;2024-01-15T01:50:53;23.90;;;12.57;;
1569;SDS011;778;50.120;8.698;2024-01-15T01:53:25;27.77;;;14.33;;
1569;SDS011;778;50.120;8.698;2024-01-15T01:55:55;31.60;;;16.07;;
1569;SDS011;778;50.120;8.698;2024-01-15T01:58:26;29.20;;;13.50;;
1569;SDS011;778;50.120;8.698;2024-01-15T02:00:56;19.17;;;11.43;;
1569;SDS011;778;50.120;8.698;2024-01-15T02:03:26;22.97;;;11.60;;
1569;SDS011;778;50.120;8.698;2024-01-15T02:05:55;28.90;;;14.60;;
1569;SDS011;778;50.120;8.698;2024-01-15T02:08:24;30.37;;;15.67;;
1569;SDS011;778;50.120;8.698;2024-01-15T02:10:53;21.70;;;11.00;;
1569;SDS011;778;50.120;8.698;2024-01-15T02:13:23;23.93;;;13.43;;
1569;SDS011;778;50.120;8.698;2024-01-15T02:15:52;29.60;;;17.53;;
1569;SDS011;778;50.120;8.698;2024-01-15T02:18:20;26.83;;;14.30;;
1569;SDS011;778;50.120;8.698;2024-01-15T02:20:49;30.97;;;13.10;;
1569;SDS011;778;50.120;8.698;2024-01-15T02:23:19;24.13;;;13.40;;
1569;SDS011;778;50.120;8.698;2024-01-15T02:25:47;25.77;;;13.60;;
1569;SDS011;778;50.120;8.698;2024-01-15T02:28:17;18.87;;;12.27;;
1569;SDS011;778;50.120;8.698;2024-01-15T02:30:45;22.40;;;11.83;;
1569;SDS011;778;50.120;8.698;2024-01-15T02:33:14;23.73;;;13.33;;
1569;SDS011;778;50.120;8.698;2024-01-15T02:35:43;27.23;;;14.00;;
1569;SDS011;778;50.120;8.698;2024-01-15T02:38:12;27.37;;;14.17;;
1569;SDS011;778;50.120;8.698;2024-01-15T02:40:44;26.70;;;14.23;;
1569;SDS011;778;50.120;8.698;2024-01-15T02:43:13;23.23;;;12.93;;
1569;SDS011;778;50.120;8.698;2024-01-15T02:45:41;22.07;;;13.10;;
1569;SDS011;778;50.120;8.698;2024-01-15T02:48:10;25.83;;;12.10;;
1569;SDS011;778;50.120;8.698;2024-01-15T02:50:38;26.07;;;12.50;;
1569;SDS011;778;50.120;8.698;2024-01-15T02:53:07;26.13;;;13.20;;
1569;SDS011;778;50.120;8.698;2024-01-15T02:55:35;22.83;;;12.43;;
1569;SDS011;778;50.120;8.698;2024-01-15T02:58:04;28.50;;;11.83;;
1569;SDS011;778;50.120;8.698;2024-01-15T03:00:33;18.13;;;10.30;;
1569;SDS011;778;50.120;8.698;2024-01-15T03:03:02;20.10;;;11.60;;
1569;SDS011;778;50.120;8.698;2024-01-15T03:05:30;23.70;;;13.70;;
1569;SDS011;778;50.120;8.698;2024-01-15T03:07:59;23.30;;;13.90;;
1569;SDS011;778;50.120;8.698;2024-01-15T03:10:27;20.70;;;12.87;;
1569;SDS011;778;50.120;8.698;2024-01-15T03:12:57;25.13;;;13.73;;
1569;SDS011;778;50.120;8.698;2024-01-15T03:15:26;25.73;;;13.20;;
1569;SDS011;778;50.120;8.698;2024-01-15T03:17:55;23.27;;;11.97;;
1569;SDS011;778;50.120;8.698;2024-01-15T03:20:23;21.40;;;11.13;;
1569;SDS011;778;50.120;8.698;2024-01-15T03:22:52;27.00;;;11.73;;
1569;SDS011;778;50.120;8.698;2024-01-15T03:25:21;23.07;;;14.30;;
1569;SDS011;778;50.120;8.698;2024-01-15T03:27:49;26.57;;;12.80;;
1569;SDS011;778;50.120;8.698;2024-01-15T03:30:18;31.67;;;13.30;;
1569;SDS011;778;50.120;8.698;2024-01-15T03:32:48;24.27;;;13.83;;
1569;SDS011;778;50.120;8.698;2024-01-15T03:35:17;23.20;;;12.30;;
1569;SDS011;778;50.120;8.698;2024-01-15T03:37:45;25.23;;;14.37;;
1569;SDS011;778;50.120;8.698;2024-01-15T03:40:14;22.37;;;12.00;;
1569;SDS011;778;50.120;8.698;2024-01-15T03:42:47;26.97;;;13.13;;
1569;SDS011;778;50.120;8.698;2024-01-15T03:45:16;22.27;;;11.63;;
1569;SDS011;778;50.120;8.698;2024-01-15T03:47:44;26.90;;;13.30;;
1569;SDS011;778;50.120;8.698;2024-01-15T03:50:14;20.80;;;9.43;;
1569;SDS011;778;50.120;8.698;2024-01-15T03:52:43;21.43;;;10.67;;
1569;SDS011;778;50.120;8.698;2024-01-15T03:55:11;25.67;;;12.10;;
1569;SDS011;778;50.120;8.698;2024-01-15T03:57:40;22.83;;;12.30;;
1569;SDS011;778;50.120;8.698;2024-01-15T04:00:09;21.93;;;11.60;;
1569;SDS011;778;50.120;8.698;2024-01-15T04:02:39;22.53;;;12.07;;
1569;SDS011;778;50.120;8.698;2024-01-15T04:05:07;20.90;;;12.77;;
1569;SDS011;778;50.120;8.698;2024-01-15T04:07:37;25.10;;;10.50;;
1569;SDS011;778;50.120;8.698;2024-01-15T04:10:06;22.97;;;12.30;;
1569;SDS011;778;50.120;8.698;2024-01-15T04:12:35;17.83;;;9.77;;
1569;SDS011;778;50.120;8.698;2024-01-15T04:15:04;21.93;;;10.90;;
1569;SDS011;778;50.120;8.698;2024-01-15T04:17:34;21.90;;;11.77;;
1569;SDS011;778;50.120;8.698;2024-01-15T04:20:03;24.13;;;12.33;;
1569;SDS011;778;50.120;8.698;2024-01-15T04:22:33;25.33;;;11.53;;
1569;SDS011;778;50.120;8.698;2024-01-15T04:25:04;18.77;;;11.10;;
1569;SDS011;778;50.120;8.698;2024-01-15T04:27:33;25.70;;;11.43;;
1569;SDS011;778;50.120;8.698;2024-01-15T04:30:02;23.80;;;11.40;;
1569;SDS011;778;50.120;8.698;2024-01-15T04:32:32;20.93;;;11.40;;
1569;SDS011;778;50.120;8.698;2024-01-15T04:35:00;16.77;;;10.10;;
1569;SDS011;778;50.120;8.698;2024-01-15T04:37:29;18.53;;;11.00;;
1569;SDS011;778;50.120;8.698;2024-01-15T04:39:57;23.10;;;11.27;;
1569;SDS011;778;50.120;8.698;2024-01-15T04:42:27;19.27;;;10.40;;
1569;SDS011;778;50.120;8.698;2024-01-15T04:44:56;20.07;;;11.80;;
1569;SDS011;778;50.120;8.698;2024-01-15T04:47:24;20.77;;;11.33;;
1569;SDS011;778;50.120;8.698;2024-01-15T04:49:53;22.93;;;12.57;;
1569;SDS011;778;50.120;8.698;2024-01-15T04:52:21;19.43;;;10.17;;
1569;SDS011;778;50.120;8.698;2024-01-15T04:54:50;22.90;;;10.33;;
1569;SDS011;778;50.120;8.698;2024-01-15T04:57:19;24.50;;;11.30;;
1569;SDS011;778;50.120;8.698;2024-01-15T04:59:49;16.40;;;8.50;;
1569;SDS011;778;50.120;8.698;2024-01-15T05:02:17;23.80;;;9.67;;
1569;SDS011;778;50.120;8.698;2024-01-15T05:04:46;26.10;;;12.37;;
1569;SDS011;778;50.120;8.698;2024-01-15T05:07:14;21.10;;;12.13;;
1569;SDS011;778;50.120;8.698;2024-01-15T05:09:43;21.20;;;11.47;;
1569;SDS011;778;50.120;8.698;2024-01-15T05:12:11;21.43;;;12.37;;
1569;SDS011;778;50.120;8.698;2024-01-15T05:14:40;20.63;;;10.43;;
1569;SDS011;778;50.120;8.698;2024-01-15T05:17:09;24.60;;;13.07;;
1569;SDS011;778;50.120;8.698;2024-01-15T05:19:38;18.07;;;9.87;;
1569;SDS011;778;50.120;8.698;2024-01-15T05:22:06;20.30;;;12.10;;
1569;SDS011;778;50.120;8.698;2024-01-15T05:24:35;18.77;;;10.87;;
1569;SDS011;778;50.120;8.698;2024-01-15T05:27:03;20.17;;;9.80;;
1569;SDS011;778;50.120;8.698;2024-01-15T05:29:32;27.50;;;12.97;;
1569;SDS011;778;50.120;8.698;2024-01-15T05:32:01;20.63;;;11.50;;
1569;SDS011;778;50.120;8.698;2024-01-15T05:34:31;26.60;;;12.70;;
1569;SDS011;778;50.120;8.698;2024-01-15T05:37:00;22.43;;;10.67;;
1569;SDS011;778;50.120;8.698;2024-01-15T05:39:28;24.80;;;12.23;;
1569;SDS011;778;50.120;8.698;2024-01-15T05:41:57;20.60;;;11.00;;
1569;SDS011;778;50.120;8.698;2024-01-15T05:44:26;21.87;;;10.67;;
1569;SDS011;778;50.120;8.698;2024-01-15T05:46:55;18.60;;;10.97;;
1569;SDS011;778;50.120;8.698;2024-01-15T05:49:23;27.37;;;12.83;;
1569;SDS011;778;50.120;8.698;2024-01-15T05:51:53;21.83;;;11.50;;
1569;SDS011;778;50.120;8.698;2024-01-15T05:54:22;21.53;;;13.00;;
1569;SDS011;778;50.120;8.698;2024-01-15T05:56:51;20.40;;;9.67;;
1569;SDS011;778;50.120;8.698;2024-01-15T05:59:19;24.73;;;13.50;;
1569;SDS011;778;50.120;8.698;2024-01-15T06:01:48;20.40;;;10.60;;
1569;SDS011;778;50.120;8.698;2024-01-15T06:04:17;20.13;;;9.43;;
1569;SDS011;778;50.120;8.698;2024-01-15T06:06:45;26.13;;;12.00;;
1569;SDS011;778;50.120;8.698;2024-01-15T06:09:15;25.43;;;13.27;;
1569;SDS011;778;50.120;8.698;2024-01-15T06:11:44;29.50;;;13.80;;
1569;SDS011;778;50.120;8.698;2024-01-15T06:14:12;23.90;;;11.80;;
1569;SDS011;778;50.120;8.698;2024-01-15T06:16:41;27.47;;;13.90;;
1569;SDS011;778;50.120;8.698;2024-01-15T06:19:09;15.40;;;9.80;;
1569;SDS011;778;50.120;8.698;2024-01-15T06:21:38;20.57;;;10.10;;
1569;SDS011;778;50.120;8.698;2024-01-15T06:24:07;26.67;;;12.07;;
1569;SDS011;778;50.120;8.698;2024-01-15T06:26:38;22.63;;;11.80;;
1569;SDS011;778;50.120;8.698;2024-01-15T06:29:06;20.57;;;12.50;;
1569;SDS011;778;50.120;8.698;2024-01-15T06:31:35;22.53;;;11.20;;
1569;SDS011;778;50.120;8.698;2024-01-15T06:34:04;22.23;;;9.87;;
1569;SDS011;778;50.120;8.698;2024-01-15T06:36:33;24.80;;;13.70;;
1569;SDS011;778;50.120;8.698;2024-01-15T06:39:01;22.57;;;11.53;;
1569;SDS011;778;50.120;8.698;2024-01-15T06:41:30;17.40;;;10.03;;
1569;SDS011;778;50.120;8.698;2024-01-15T06:44:00;27.00;;;13.87;;
1569;SDS011;778;50.120;8.698;2024-01-15T06:46:28;21.40;;;9.37;;
1569;SDS011;778;50.120;8.698;2024-01-15T06:48:57;21.97;;;10.40;;
1569;SDS011;778;50.120;8.698;2024-01-15T06:51:26;21.63;;;12.90;;
1569;SDS011;778;50.120;8.698;2024-01-15T06:53:54;19.80;;;11.07;;
1569;SDS011;778;50.120;8.698;2024-01-15T06:56:22;20.50;;;11.37;;
1569;SDS011;778;50.120;8.698;2024-01-15T06:58:51;24.30;;;12.10;;
1569;SDS011;778;50.120;8.698;2024-01-15T07:01:21;25.63;;;12.90;;
1569;SDS011;778;50.120;8.698;2024-01-15T07:03:49;23.40;;;12.40;;
1569;SDS011;778;50.120;8.698;2024-01-15T07:06:18;23.30;;;13.30;;
1569;SDS011;778;50.120;8.698;2024-01-15T07:08:47;26.07;;;12.20;;
1569;SDS011;778;50.120;8.698;2024-01-15T07:11:16;25.57;;;11.17;;
1569;SDS011;778;50.120;8.698;2024-01-15T07:13:45;21.33;;;12.70;;
1569;SDS011;778;50.120;8.698;2024-01-15T07:16:13;22.50;;;13.37;;
1569;SDS011;778;50.120;8.698;2024-01-15T07:19:03;26.10;;;12.47;;
1569;SDS011;778;50.120;8.698;2024-01-15T07:21:31;22.43;;;12.93;;
1569;SDS011;778;50.120;8.698;2024-01-15T07:24:00;18.30;;;9.50;;
1569;SDS011;778;50.120;8.698;2024-01-15T07:26:29;26.70;;;12.20;;
1569;SDS011;778;50.120;8.698;2024-01-15T07:28:58;22.67;;;13.27;;
1569;SDS011;778;50.120;8.698;2024-01-15T07:31:26;30.07;;;13.23;;
1569;SDS011;778;50.120;8.698;2024-01-15T07:33:55;24.50;;;12.63;;
1569;SDS011;778;50.120;8.698;2024-01-15T07:36:25;23.40;;;12.13;;
1569;SDS011;778;50.120;8.698;2024-01-15T07:38:54;22.57;;;10.37;;
1569;SDS011;778;50.120;8.698;2024-01-15T07:41:23;25.07;;;13.53;;
1569;SDS011;778;50.120;8.698;2024-01-15T07:43:51;24.77;;;12.87;;
1569;SDS011;778;50.120;8.698;2024-01-15T07:46:20;28.03;;;13.60;;
1569;SDS011;778;50.120;8.698;2024-01-15T07:48:48;23.03;;;12.40;;
1569;SDS011;778;50.120;8.698;2024-01-15T07:51:22;19.17;;;11.20;;
1569;SDS011;778;50.120;8.698;2024-01-15T07:53:53;20.07;;;10.67;;
1569;SDS011;778;50.120;8.698;2024-01-15T07:56:22;26.60;;;14.60;;
1569;SDS011;778;50.120;8.698;2024-01-15T07:58:51;23.70;;;11.47;;
1569;SDS011;778;50.120;8.698;2024-01-15T08:01:19;24.47;;;11.37;;
1569;SDS011;778;50.120;8.698;2024-01-15T08:03:48;21.23;;;13.90;;
1569;SDS011;778;50.120;8.698;2024-01-15T08:06:16;24.63;;;12.20;;
1569;SDS011;778;50.120;8.698;2024-01-15T08:08:45;22.33;;;12.40;;
1569;SDS011;778;50.120;8.698;2024-01-15T08:11:15;23.60;;;12.40;;
1569;SDS011;778;50.120;8.698;2024-01-15T08:13:43;22.83;;;12.33;;
1569;SDS011;778;50.120;8.698;2024-01-15T08:16:12;25.97;;;13.20;;
1569;SDS011;778;50.120;8.698;2024-01-15T08:18:41;23.70;;;13.30;;
1569;SDS011;778;50.120;8.698;2024-01-15T08:21:10;26.73;;;15.90;;
1569;SDS011;778;50.120;8.698;2024-01-15T08:23:39;26.07;;;13.80;;
1569;SDS011;778;50.120;8.698;2024-01-15T08:26:08;26.13;;;13.30;;
1569;SDS011;778;50.120;8.698;2024-01-15T08:28:39;23.50;;;13.97;;
1569;SDS011;778;50.120;8.698;2024-01-15T08:31:07;27.03;;;14.87;;
1569;SDS011;778;50.120;8.698;2024-01-15T08:33:36;25.03;;;12.50;;
1569;SDS011;778;50.120;8.698;2024-01-15T08:36:05;26.03;;;14.20;;
1569;SDS011;778;50.120;8.698;2024-01-15T08:38:34;22.93;;;14.13;;
1569;SDS011;778;50.120;8.698;2024-01-15T08:41:02;19.37;;;10.83;;
1569;SDS011;778;50.120;8.698;2024-01-15T08:43:31;29.23;;;14.37;;
1569;SDS011;778;50.120;8.698;2024-01-15T08:46:01;20.07;;;10.60;;
1569;SDS011;778;50.120;8.698;2024-01-15T08:48:30;24.90;;;14.20;;
1569;SDS011;778;50.120;8.698;2024-01-15T08:50:58;24.10;;;14.30;;
1569;SDS011;778;50.120;8.698;2024-01-15T08:53:27;31.17;;;15.93;;
1569;SDS011;778;50.120;8.698;2024-01-15T08:55:55;30.03;;;14.57;;
1569;SDS011;778;50.120;8.698;2024-01-15T08:58:24;21.93;;;12.97;;
1569;SDS011;778;50.120;8.698;2024-01-15T09:00:52;23.40;;;12.73;;
1569;SDS011;778;50.120;8.698;2024-01-15T09:03:22;23.10;;;12.50;;
1569;SDS011;778;50.120;8.698;2024-01-15T09:05:52;19.23;;;12.23;;
1569;SDS011;778;50.120;8.698;2024-01-15T09:08:21;26.50;;;15.00;;
1569;SDS011;778;50.120;8.698;2024-01-15T09:10:49;18.53;;;11.67;;
1569;SDS011;778;50.120;8.698;2024-01-15T09:13:18;19.90;;;11.30;;
1569;SDS011;778;50.120;8.698;2024-01-15T09:15:46;23.83;;;13.93;;
1569;SDS011;778;50.120;8.698;2024-01-15T09:18:15;23.30;;;11.10;;
1569;SDS011;778;50.120;8.698;2024-01-15T09:20:45;22.07;;;10.83;;
1569;SDS011;778;50.120;8.698;2024-01-15T09:23:13;22.07;;;12.97;;
1569;SDS011;778;50.120;8.698;2024-01-15T09:25:42;16.57;;;10.50;;
1569;SDS011;778;50.120;8.698;2024-01-15T09:28:10;27.73;;;14.20;;
1569;SDS011;778;50.120;8.698;2024-01-15T09:30:39;28.83;;;14.33;;
1569;SDS011;778;50.120;8.698;2024-01-15T09:33:07;26.93;;;13.80;;
1569;SDS011;778;50.120;8.698;2024-01-15T09:35:36;22.47;;;12.70;;
1569;SDS011;778;50.120;8.698;2024-01-15T09:38:06;23.27;;;11.90;;
1569;SDS011;778;50.120;8.698;2024-01-15T09:40:35;16.03;;;9.80;;
1569;SDS011;778;50.120;8.698;2024-01-15T09:43:07;20.20;;;11.10;;
1569;SDS011;778;50.120;8.698;2024-01-15T09:45:36;20.43;;;11.27;;
1569;SDS011;778;50.120;8.698;2024-01-15T09:48:05;20.50;;;12.63;;
1569;SDS011;778;50.120;8.698;2024-01-15T09:50:34;19.13;;;12.30;;
1569;SDS011;778;50.120;8.698;2024-01-15T09:53:03;22.13;;;11.73;;
1569;SDS011;778;50.120;8.698;2024-01-15T09:55:34;22.07;;;12.10;;
1569;SDS011;778;50.120;8.698;2024-01-15T09:58:06;18.03;;;11.80;;
1569;SDS011;778;50.120;8.698;2024-01-15T10:00:35;20.37;;;12.37;;
1569;SDS011;778;50.120;8.698;2024-01-15T10:03:08;18.47;;;10.73;;
1569;SDS011;778;50.120;8.698;2024-01-15T10:05:37;20.73;;;11.93;;
1569;SDS011;778;50.120;8.698;2024-01-15T10:08:08;21.60;;;11.10;;
1569;SDS011;778;50.120;8.698;2024-01-15T10:10:37;19.07;;;8.77;;
1569;SDS011;778;50.120;8.698;2024-01-15T10:13:06;18.80;;;11.17;;
1569;SDS011;778;50.120;8.698;2024-01-15T10:15:35;21.27;;;10.97;;
1569;SDS011;778;50.120;8.698;2024-01-15T10:18:05;17.97;;;11.20;;
1569;SDS011;778;50.120;8.698;2024-01-15T10:20:34;14.03;;;8.60;;
1569;SDS011;778;50.120;8.698;2024-01-15T10:23:02;20.40;;;10.77;;
1569;SDS011;778;50.120;8.698;2024-01-15T10:25:33;17.93;;;10.80;;
1569;SDS011;778;50.120;8.698;2024-01-15T10:28:03;18.70;;;11.37;;
1569;SDS011;778;50.120;8.698;2024-01-15T10:30:33;15.10;;;9.80;;
1569;SDS011;778;50.120;8.698;2024-01-15T10:33:03;19.43;;;11.73;;
1569;SDS011;778;50.120;8.698;2024-01-15T10:35:33;16.50;;;11.17;;
1569;SDS011;778;50.120;8.698;2024-01-15T10:38:02;19.13;;;11.30;;
1569;SDS011;778;50.120;8.698;2024-01-15T10:40:33;13.40;;;8.50;;
1569;SDS011;778;50.120;8.698;2024-01-15T10:43:01;16.53;;;10.73;;
1569;SDS011;778;50.120;8.698;2024-01-15T10:45:30;18.83;;;11.23;;
1569;SDS011;778;50.120;8.698;2024-01-15T10:47:59;19.00;;;10.80;;
1569;SDS011;778;50.120;8.698;2024-01-15T10:50:29;11.83;;;8.30;;
1569;SDS011;778;50.120;8.698;2024-01-15T10:52:58;14.80;;;9.83;;
1569;SDS011;778;50.120;8.698;2024-01-15T10:55:27;18.73;;;10.97;;
1569;SDS011;778;50.120;8.698;2024-01-15T10:57:58;19.67;;;11.67;;
1569;SDS011;778;50.120;8.698;2024-01-15T11:00:27;17.73;;;10.40;;
1569;SDS011;778;50.120;8.698;2024-01-15T11:02:56;20.17;;;11.00;;
1569;SDS011;778;50.120;8.698;2024-01-15T11:05:25;15.97;;;10.33;;
1569;SDS011;778;50.120;8.698;2024-01-15T11:07:55;16.20;;;10.80;;
1569;SDS011;778;50.120;8.698;2024-01-15T11:10:40;15.67;;;10.47;;
1569;SDS011;778;50.120;8.698;2024-01-15T11:13:15;10.47;;;8.13;;
1569;SDS011;778;50.120;8.698;2024-01-15T11:15:56;19.17;;;11.63;;
1569;SDS011;778;50.120;8.698;2024-01-15T11:18:28;18.60;;;12.43;;
1569;SDS011;778;50.120;8.698;2024-01-15T11:23:50;14.17;;;11.00;;
1569;SDS011;778;50.120;8.698;2024-01-15T11:26:27;13.50;;;10.10;;
1569;SDS011;778;50.120;8.698;2024-01-15T11:29:02;16.20;;;10.87;;
1569;SDS011;778;50.120;8.698;2024-01-15T11:34:55;16.70;;;10.73;;
1569;SDS011;778;50.120;8.698;2024-01-15T11:37:26;14.67;;;9.37;;
1569;SDS011;778;50.120;8.698;2024-01-15T11:40:00;16.47;;;11.03;;
1569;SDS011;778;50.120;8.698;2024-01-15T11:42:31;15.03;;;10.60;;
1569;SDS011;778;50.120;8.698;2024-01-15T11:45:01;20.90;;;18.80;;
1569;SDS011;778;50.120;8.698;2024-01-15T11:47:57;17.07;;;10.63;;
1569;SDS011;778;50.120;8.698;2024-01-15T11:50:42;15.90;;;11.00;;
1569;SDS011;778;50.120;8.698;2024-01-15T11:53:26;15.03;;;10.43;;
1569;SDS011;778;50.120;8.698;2024-01-15T11:56:01;15.03;;;9.47;;
1569;SDS011;778;50.120;8.698;2024-01-15T11:58:31;18.10;;;10.37;;
1569;SDS011;778;50.120;8.698;2024-01-15T12:01:03;14.50;;;10.13;;
1569;SDS011;778;50.120;8.698;2024-01-15T12:03:32;16.50;;;9.60;;
1569;SDS011;778;50.120;8.698;2024-01-15T12:06:01;14.07;;;8.77;;
1569;SDS011;778;50.120;8.698;2024-01-15T12:08:30;11.57;;;8.77;;
1569;SDS011;778;50.120;8.698;2024-01-15T12:10:59;17.73;;;7.13;;
1569;SDS011;778;50.120;8.698;2024-01-15T12:13:27;14.10;;;9.30;;
1569;SDS011;778;50.120;8.698;2024-01-15T12:15:56;14.47;;;9.47;;
1569;SDS011;778;50.120;8.698;2024-01-15T12:18:26;15.60;;;10.40;;
1569;SDS011;778;50.120;8.698;2024-01-15T12:20:55;12.53;;;9.03;;
1569;SDS011;778;50.120;8.698;2024-01-15T12:23:23;13.93;;;9.40;;
1569;SDS011;778;50.120;8.698;2024-01-15T12:25:53;15.20;;;8.53;;
1569;SDS011;778;50.120;8.698;2024-01-15T12:28:22;13.33;;;9.20;;
1569;SDS011;778;50.120;8.698;2024-01-15T12:30:50;19.70;;;10.90;;
1569;SDS011;778;50.120;8.698;2024-01-15T12:33:19;13.57;;;9.90;;
1569;SDS011;778;50.120;8.698;2024-01-15T12:35:52;19.63;;;10.47;;
1569;SDS011;778;50.120;8.698;2024-01-15T12:38:21;14.70;;;9.93;;
1569;SDS011;778;50.120;8.698;2024-01-15T12:40:49;13.27;;;9.33;;
1569;SDS011;778;50.120;8.698;2024-01-15T12:43:18;11.20;;;7.87;;
1569;SDS011;778;50.120;8.698;2024-01-15T12:45:46;13.17;;;9.03;;
1569;SDS011;778;50.120;8.698;2024-01-15T12:48:14;12.50;;;8.70;;
1569;SDS011;778;50.120;8.698;2024-01-15T12:50:45;15.53;;;9.90;;
1569;SDS011;778;50.120;8.698;2024-01-15T12:53:15;12.47;;;9.03;;
1569;SDS011;778;50.120;8.698;2024-01-15T12:55:44;11.50;;;8.10;;
1569;SDS011;778;50.120;8.698;2024-01-15T12:58:13;17.60;;;10.70;;
1569;SDS011;778;50.120;8.698;2024-01-15T13:00:44;12.77;;;9.70;;
1569;SDS011;778;50.120;8.698;2024-01-15T13:03:14;13.80;;;9.53;;
1569;SDS011;778;50.120;8.698;2024-01-15T13:05:42;10.53;;;7.50;;
1569;SDS011;778;50.120;8.698;2024-01-15T13:08:11;10.60;;;7.20;;
1569;SDS011;778;50.120;8.698;2024-01-15T13:10:41;9.40;;;7.93;;
1569;SDS011;778;50.120;8.698;2024-01-15T13:13:10;12.67;;;6.93;;
1569;SDS011;778;50.120;8.698;2024-01-15T13:15:39;11.43;;;6.57;;
1569;SDS011;778;50.120;8.698;2024-01-15T13:18:08;12.20;;;8.47;;
1569;SDS011;778;50.120;8.698;2024-01-15T13:20:37;12.20;;;7.80;;
1569;SDS011;778;50.120;8.698;2024-01-15T13:23:05;10.90;;;7.30;;
1569;SDS011;778;50.120;8.698;2024-01-15T13:25:34;10.70;;;7.43;;
1569;SDS011;778;50.120;8.698;2024-01-15T13:28:06;10.70;;;7.40;;
1569;SDS011;778;50.120;8.698;2024-01-15T13:30:35;11.63;;;7.40;;
1569;SDS011;778;50.120;8.698;2024-01-15T13:33:04;7.87;;;6.20;;
1569;SDS011;778;50.120;8.698;2024-01-15T13:35:33;12.73;;;7.90;;
1569;SDS011;778;50.120;8.698;2024-01-15T13:38:03;12.07;;;7.40;;
1569;SDS011;778;50.120;8.698;2024-01-15T13:40:31;11.13;;;6.80;;
1569;SDS011;778;50.120;8.698;2024-01-15T13:43:00;12.60;;;8.47;;
1569;SDS011;778;50.120;8.698;2024-01-15T13:45:34;10.87;;;6.97;;
1569;SDS011;778;50.120;8.698;2024-01-15T13:48:04;12.73;;;7.03;;
1569;SDS011;778;50.120;8.698;2024-01-15T13:50:34;11.00;;;6.97;;
1569;SDS011;778;50.120;8.698;2024-01-15T13:53:03;7.80;;;6.70;;
1569;SDS011;778;50.120;8.698;2024-01-15T13:55:32;11.23;;;7.37;;
1569;SDS011;778;50.120;8.698;2024-01-15T13:58:01;9.60;;;8.53;;
1569;SDS011;778;50.120;8.698;2024-01-15T14:00:31;7.63;;;5.50;;
1569;SDS011;778;50.120;8.698;2024-01-15T14:03:02;13.63;;;8.07;;
1569;SDS011;778;50.120;8.698;2024-01-15T14:05:31;7.80;;;5.50;;
1569;SDS011;778;50.120;8.698;2024-01-15T14:08:00;8.30;;;5.53;;
1569;SDS011;778;50.120;8.698;2024-01-15T14:10:29;8.60;;;5.20;;
1569;SDS011;778;50.120;8.698;2024-01-15T14:12:59;8.27;;;5.70;;
1569;SDS011;778;50.120;8.698;2024-01-15T14:15:28;8.93;;;6.10;;
1569;SDS011;778;50.120;8.698;2024-01-15T14:17:57;8.80;;;5.13;;
1569;SDS011;778;50.120;8.698;2024-01-15T14:20:27;7.33;;;5.10;;
1569;SDS011;778;50.120;8.698;2024-01-15T14:22:55;7.93;;;4.50;;
1569;SDS011;778;50.120;8.698;2024-01-15T14:25:24;7.50;;;5.30;;
1569;SDS011;778;50.120;8.698;2024-01-15T14:27:52;8.00;;;4.67;;
1569;SDS011;778;50.120;8.698;2024-01-15T14:30:21;9.10;;;6.00;;
1569;SDS011;778;50.120;8.698;2024-01-15T14:32:50;7.80;;;4.50;;
1569;SDS011;778;50.120;8.698;2024-01-15T14:35:18;6.90;;;4.93;;
1569;SDS011;778;50.120;8.698;2024-01-15T14:37:48;7.33;;;4.10;;
1569;SDS011;778;50.120;8.698;2024-01-15T14:40:17;6.40;;;4.27;;
1569;SDS011;778;50.120;8.698;2024-01-15T14:42:45;6.80;;;3.70;;
1569;SDS011;778;50.120;8.698;2024-01-15T14:45:14;5.73;;;4.10;;
1569;SDS011;778;50.120;8.698;2024-01-15T14:47:42;7.43;;;4.00;;
1569;SDS011;778;50.120;8.698;2024-01-15T14:50:11;9.33;;;3.80;;
1569;SDS011;778;50.120;8.698;2024-01-15T14:52:40;9.43;;;5.20;;
1569;SDS011;778;50.120;8.698;2024-01-15T14:55:12;10.60;;;4.90;;
1569;SDS011;778;50.120;8.698;2024-01-15T14:57:41;9.03;;;5.90;;
1569;SDS011;778;50.120;8.698;2024-01-15T15:00:09;8.50;;;5.80;;
1569;SDS011;778;50.120;8.698;2024-01-15T15:02:40;8.67;;;5.07;;
1569;SDS011;778;50.120;8.698;2024-01-15T15:05:08;12.57;;;4.90;;
1569;SDS011;778;50.120;8.698;2024-01-15T15:07:40;7.63;;;4.90;;
1569;SDS011;778;50.120;8.698;2024-01-15T15:10:08;6.43;;;5.47;;
1569;SDS011;778;50.120;8.698;2024-01-15T15:12:40;6.77;;;5.40;;
1569;SDS011;778;50.120;8.698;2024-01-15T15:15:08;8.90;;;5.60;;
1569;SDS011;778;50.120;8.698;2024-01-15T15:17:46;8.10;;;6.70;;
1569;SDS011;778;50.120;8.698;2024-01-15T15:20:15;8.07;;;5.33;;
1569;SDS011;778;50.120;8.698;2024-01-15T15:22:45;12.47;;;8.73;;
1569;SDS011;778;50.120;8.698;2024-01-15T15:25:14;11.70;;;5.30;;
1569;SDS011;778;50.120;8.698;2024-01-15T15:27:44;9.13;;;6.27;;